sensor_id;sensor_type;location;lat;lon;timestamp;P1;durP1;ratioP1;P2;durP2;ratioP2
2201;SDS011;1107;48.654;9.250;2022-09-14T00:01:19;1.20;;;0.50;;
2201;SDS011;1107;48.654;9.250;2022-09-14T00:03:50;1.20;;;0.40;;
2201;SDS011;1107;48.654;9.250;2022-09-14T00:06:18;1.30;;;0.40;;
2201;SDS011;1107;48.654;9.250;2022-09-14T00:08:48;1.30;;;0.50;;
2201;SDS011;1107;48.654;9.250;2022-09-14T00:11:16;1.30;;;0.40;;
2201;SDS011;1107;48.654;9.250;2022-09-14T00:13:44;1.20;;;0.40;;
2201;SDS011;1107;48.654;9.250;2022-09-14T00:16:28;1.25;;;0.40;;
2201;SDS011;1107;48.654;9.250;2022-09-14T00:18:57;1.30;;;0.40;;
2201;SDS011;1107;48.654;9.250;2022-09-14T00:21:25;1.30;;;0.57;;
2201;SDS011;1107;48.654;9.250;2022-09-14T00:23:53;1.23;;;0.40;;
2201;SDS011;1107;48.654;9.250;2022-09-14T00:26:21;1.30;;;0.40;;
2201;SDS011;1107;48.654;9.250;2022-09-14T00:28:50;1.27;;;0.40;;
2201;SDS011;1107;48.654;9.250;2022-09-14T00:31:19;1.30;;;0.50;;
2201;SDS011;1107;48.654;9.250;2022-09-14T00:33:48;1.20;;;0.40;;
2201;SDS011;1107;48.654;9.250;2022-09-14T00:36:17;1.23;;;0.40;;
2201;SDS011;1107;48.654;9.250;2022-09-14T00:38:45;1.20;;;0.40;;
2201;SDS011;1107;48.654;9.250;2022-09-14T00:41:15;1.20;;;0.40;;
2201;SDS011;1107;48.654;9.250;2022-09-14T00:43:50;1.20;;;0.40;;
2201;SDS011;1107;48.654;9.250;2022-09-14T00:46:23;1.30;;;0.40;;
2201;SDS011;1107;48.654;9.250;2022-09-14T00:48:53;1.30;;;0.40;;
2201;SDS011;1107;48.654;9.250;2022-09-14T00:51:21;1.30;;;0.40;;
2201;SDS011;1107;48.654;9.250;2022-09-14T00:53:48;1.27;;;0.40;;
2201;SDS011;1107;48.654;9.250;2022-09-14T00:56:16;1.23;;;0.40;;
2201;SDS011;1107;48.654;9.250;2022-09-14T00:58:44;1.30;;;0.40;;
2201;SDS011;1107;48.654;9.250;2022-09-14T01:01:14;1.20;;;0.40;;
2201;SDS011;1107;48.654;9.250;2022-09-14T01:03:41;1.20;;;0.40;;
2201;SDS011;1107;48.654;9.250;2022-09-14T01:06:12;1.30;;;0.40;;
2201;SDS011;1107;48.654;9.250;2022-09-14T01:08:49;1.40;;;0.60;;
2201;SDS011;1107;48.654;9.250;2022-09-14T01:11:40;1.30;;;0.47;;
2201;SDS011;1107;48.654;9.250;2022-09-14T01:14:18;1.30;;;0.40;;
2201;SDS011;1107;48.654;9.250;2022-09-14T01:16:54;1.30;;;0.47;;
2201;SDS011;1107;48.654;9.250;2022-09-14T01:19:29;1.27;;;0.40;;
2201;SDS011;1107;48.654;9.250;2022-09-14T01:22:10;1.30;;;0.40;;
2201;SDS011;1107;48.654;9.250;2022-09-14T01:24:44;1.30;;;0.40;;
2201;SDS011;1107;48.654;9.250;2022-09-14T01:27:18;1.30;;;0.40;;
2201;SDS011;1107;48.654;9.250;2022-09-14T01:29:50;1.30;;;0.50;;
2201;SDS011;1107;48.654;9.250;2022-09-14T01:32:26;2.57;;;0.60;;
2201;SDS011;1107;48.654;9.250;2022-09-14T01:34:57;1.30;;;0.50;;
2201;SDS011;1107;48.654;9.250;2022-09-14T01:37:30;1.30;;;0.40;;
2201;SDS011;1107;48.654;9.250;2022-09-14T01:40:02;1.20;;;0.40;;
2201;SDS011;1107;48.654;9.250;2022-09-14T01:42:33;1.30;;;0.50;;
2201;SDS011;1107;48.654;9.250;2022-09-14T01:45:02;1.20;;;0.40;;
2201;SDS011;1107;48.654;9.250;2022-09-14T01:47:35;1.30;;;0.40;;
2201;SDS011;1107;48.654;9.250;2022-09-14T01:50:07;1.30;;;0.50;;
2201;SDS011;1107;48.654;9.250;2022-09-14T01:52:41;1.20;;;0.40;;
2201;SDS011;1107;48.654;9.250;2022-09-14T01:55:12;1.30;;;0.50;;
2201;SDS011;1107;48.654;9.250;2022-09-14T01:57:45;1.30;;;0.50;;
2201;SDS011;1107;48.654;9.250;2022-09-14T02:00:16;1.23;;;0.40;;
2201;SDS011;1107;48.654;9.250;2022-09-14T02:02:46;1.23;;;0.40;;
2201;SDS011;1107;48.654;9.250;2022-09-14T02:05:15;1.20;;;0.40;;
2201;SDS011;1107;48.654;9.250;2022-09-14T02:07:46;1.30;;;0.40;;
2201;SDS011;1107;48.654;9.250;2022-09-14T02:10:14;1.30;;;0.40;;
2201;SDS011;1107;48.654;9.250;2022-09-14T02:12:42;1.30;;;0.50;;
2201;SDS011;1107;48.654;9.250;2022-09-14T02:15:12;1.30;;;0.40;;
2201;SDS011;1107;48.654;9.250;2022-09-14T02:17:40;1.30;;;0.40;;
2201;SDS011;1107;48.654;9.250;2022-09-14T02:20:10;1.27;;;0.40;;
2201;SDS011;1107;48.654;9.250;2022-09-14T02:22:40;1.30;;;0.40;;
2201;SDS011;1107;48.654;9.250;2022-09-14T02:25:08;1.30;;;0.40;;
2201;SDS011;1107;48.654;9.250;2022-09-14T02:27:35;1.27;;;0.40;;
2201;SDS011;1107;48.654;9.250;2022-09-14T02:30:04;1.23;;;0.40;;
2201;SDS011;1107;48.654;9.250;2022-09-14T02:32:34;1.30;;;0.40;;
2201;SDS011;1107;48.654;9.250;2022-09-14T02:35:14;1.30;;;0.40;;
2201;SDS011;1107;48.654;9.250;2022-09-14T02:37:47;1.23;;;0.40;;
2201;SDS011;1107;48.654;9.250;2022-09-14T02:40:22;1.20;;;0.40;;
2201;SDS011;1107;48.654;9.250;2022-09-14T02:42:56;1.30;;;0.40;;
2201;SDS011;1107;48.654;9.250;2022-09-14T02:45:33;1.30;;;0.50;;
2201;SDS011;1107;48.654;9.250;2022-09-14T02:48:09;1.30;;;0.50;;
2201;SDS011;1107;48.654;9.250;2022-09-14T02:50:40;1.30;;;0.50;;
2201;SDS011;1107;48.654;9.250;2022-09-14T02:53:13;1.30;;;0.50;;
2201;SDS011;1107;48.654;9.250;2022-09-14T02:55:45;1.27;;;0.40;;
2201;SDS011;1107;48.654;9.250;2022-09-14T02:58:16;1.30;;;0.40;;
2201;SDS011;1107;48.654;9.250;2022-09-14T03:00:45;1.27;;;0.40;;
2201;SDS011;1107;48.654;9.250;2022-09-14T03:03:13;1.27;;;0.40;;
2201;SDS011;1107;48.654;9.250;2022-09-14T03:05:41;1.27;;;0.40;;
2201;SDS011;1107;48.654;9.250;2022-09-14T03:08:09;1.30;;;0.40;;
2201;SDS011;1107;48.654;9.250;2022-09-14T03:10:36;1.30;;;0.50;;
2201;SDS011;1107;48.654;9.250;2022-09-14T03:13:04;1.30;;;0.40;;
2201;SDS011;1107;48.654;9.250;2022-09-14T03:15:31;1.23;;;0.40;;
2201;SDS011;1107;48.654;9.250;2022-09-14T03:17:59;1.27;;;0.40;;
2201;SDS011;1107;48.654;9.250;2022-09-14T03:20:26;1.30;;;0.40;;
2201;SDS011;1107;48.654;9.250;2022-09-14T03:22:54;1.20;;;0.40;;
2201;SDS011;1107;48.654;9.250;2022-09-14T03:25:23;1.30;;;0.40;;
2201;SDS011;1107;48.654;9.250;2022-09-14T03:27:51;1.30;;;0.40;;
2201;SDS011;1107;48.654;9.250;2022-09-14T03:30:20;1.30;;;0.40;;
2201;SDS011;1107;48.654;9.250;2022-09-14T03:32:47;1.20;;;0.40;;
2201;SDS011;1107;48.654;9.250;2022-09-14T03:35:16;1.30;;;0.40;;
2201;SDS011;1107;48.654;9.250;2022-09-14T03:37:44;1.27;;;0.43;;
2201;SDS011;1107;48.654;9.250;2022-09-14T03:40:13;1.30;;;0.40;;
2201;SDS011;1107;48.654;9.250;2022-09-14T03:42:41;1.27;;;0.40;;
2201;SDS011;1107;48.654;9.250;2022-09-14T03:45:09;1.30;;;0.40;;
2201;SDS011;1107;48.654;9.250;2022-09-14T03:47:36;1.23;;;0.40;;
2201;SDS011;1107;48.654;9.250;2022-09-14T03:50:04;1.30;;;0.50;;
2201;SDS011;1107;48.654;9.250;2022-09-14T03:52:33;1.50;;;0.70;;
2201;SDS011;1107;48.654;9.250;2022-09-14T03:55:02;1.87;;;0.90;;
2201;SDS011;1107;48.654;9.250;2022-09-14T03:57:30;1.53;;;1.03;;
2201;SDS011;1107;48.654;9.250;2022-09-14T03:59:57;2.27;;;1.17;;
2201;SDS011;1107;48.654;9.250;2022-09-14T04:02:24;1.60;;;1.30;;
2201;SDS011;1107;48.654;9.250;2022-09-14T04:04:53;1.60;;;1.10;;
2201;SDS011;1107;48.654;9.250;2022-09-14T04:07:20;6.40;;;6.00;;
2201;SDS011;1107;48.654;9.250;2022-09-14T04:09:48;7.07;;;6.57;;
2201;SDS011;1107;48.654;9.250;2022-09-14T04:12:15;8.30;;;7.27;;
2201;SDS011;1107;48.654;9.250;2022-09-14T04:14:42;8.03;;;7.20;;
2201;SDS011;1107;48.654;9.250;2022-09-14T04:17:09;5.47;;;4.87;;
2201;SDS011;1107;48.654;9.250;2022-09-14T04:19:36;6.00;;;5.40;;
2201;SDS011;1107;48.654;9.250;2022-09-14T04:22:06;4.73;;;4.47;;
2201;SDS011;1107;48.654;9.250;2022-09-14T04:24:33;4.30;;;3.50;;
2201;SDS011;1107;48.654;9.250;2022-09-14T04:27:01;3.40;;;3.20;;
2201;SDS011;1107;48.654;9.250;2022-09-14T04:29:28;3.00;;;2.80;;
2201;SDS011;1107;48.654;9.250;2022-09-14T04:31:55;3.30;;;3.10;;
2201;SDS011;1107;48.654;9.250;2022-09-14T04:34:22;2.73;;;2.53;;
2201;SDS011;1107;48.654;9.250;2022-09-14T04:36:49;1.87;;;1.73;;
2201;SDS011;1107;48.654;9.250;2022-09-14T04:39:17;2.30;;;2.10;;
2201;SDS011;1107;48.654;9.250;2022-09-14T04:41:44;2.50;;;2.30;;
2201;SDS011;1107;48.654;9.250;2022-09-14T04:44:12;2.30;;;2.10;;
2201;SDS011;1107;48.654;9.250;2022-09-14T04:46:40;1.80;;;1.63;;
2201;SDS011;1107;48.654;9.250;2022-09-14T04:49:07;1.57;;;1.07;;
2201;SDS011;1107;48.654;9.250;2022-09-14T04:51:34;1.50;;;1.20;;
2201;SDS011;1107;48.654;9.250;2022-09-14T04:54:03;1.50;;;1.00;;
2201;SDS011;1107;48.654;9.250;2022-09-14T04:56:32;1.70;;;1.30;;
2201;SDS011;1107;48.654;9.250;2022-09-14T04:59:01;1.70;;;1.10;;
2201;SDS011;1107;48.654;9.250;2022-09-14T05:01:32;2.43;;;1.30;;
2201;SDS011;1107;48.654;9.250;2022-09-14T05:04:00;1.50;;;0.87;;
2201;SDS011;1107;48.654;9.250;2022-09-14T05:06:28;1.40;;;0.70;;
2201;SDS011;1107;48.654;9.250;2022-09-14T05:08:57;1.40;;;0.80;;
2201;SDS011;1107;48.654;9.250;2022-09-14T05:11:25;1.40;;;1.10;;
2201;SDS011;1107;48.654;9.250;2022-09-14T05:13:54;1.50;;;1.23;;
2201;SDS011;1107;48.654;9.250;2022-09-14T05:16:22;1.53;;;1.27;;
2201;SDS011;1107;48.654;9.250;2022-09-14T05:18:54;1.50;;;1.00;;
2201;SDS011;1107;48.654;9.250;2022-09-14T05:21:22;1.50;;;0.80;;
2201;SDS011;1107;48.654;9.250;2022-09-14T05:23:53;1.50;;;0.80;;
2201;SDS011;1107;48.654;9.250;2022-09-14T05:26:21;1.30;;;0.70;;
2201;SDS011;1107;48.654;9.250;2022-09-14T05:28:49;2.47;;;0.60;;
2201;SDS011;1107;48.654;9.250;2022-09-14T05:31:17;1.33;;;0.73;;
2201;SDS011;1107;48.654;9.250;2022-09-14T05:33:45;1.40;;;0.93;;
2201;SDS011;1107;48.654;9.250;2022-09-14T05:36:13;1.30;;;0.70;;
2201;SDS011;1107;48.654;9.250;2022-09-14T05:38:41;1.30;;;0.50;;
2201;SDS011;1107;48.654;9.250;2022-09-14T05:41:09;1.30;;;0.60;;
2201;SDS011;1107;48.654;9.250;2022-09-14T05:43:38;1.27;;;0.50;;
2201;SDS011;1107;48.654;9.250;2022-09-14T05:46:05;1.40;;;0.80;;
2201;SDS011;1107;48.654;9.250;2022-09-14T05:48:35;1.30;;;0.50;;
2201;SDS011;1107;48.654;9.250;2022-09-14T05:51:04;1.30;;;0.63;;
2201;SDS011;1107;48.654;9.250;2022-09-14T05:53:34;1.43;;;0.70;;
2201;SDS011;1107;48.654;9.250;2022-09-14T05:56:02;1.30;;;0.50;;
2201;SDS011;1107;48.654;9.250;2022-09-14T05:58:31;1.30;;;0.50;;
2201;SDS011;1107;48.654;9.250;2022-09-14T06:01:00;1.37;;;0.60;;
2201;SDS011;1107;48.654;9.250;2022-09-14T06:03:32;1.40;;;0.73;;
2201;SDS011;1107;48.654;9.250;2022-09-14T06:05:59;1.30;;;0.50;;
2201;SDS011;1107;48.654;9.250;2022-09-14T06:08:26;1.30;;;0.50;;
2201;SDS011;1107;48.654;9.250;2022-09-14T06:10:55;1.30;;;0.50;;
2201;SDS011;1107;48.654;9.250;2022-09-14T06:13:21;1.30;;;0.50;;
2201;SDS011;1107;48.654;9.250;2022-09-14T06:15:49;1.40;;;0.80;;
2201;SDS011;1107;48.654;9.250;2022-09-14T06:18:16;1.40;;;0.70;;
2201;SDS011;1107;48.654;9.250;2022-09-14T06:20:49;1.30;;;0.57;;
2201;SDS011;1107;48.654;9.250;2022-09-14T06:23:16;1.30;;;0.50;;
2201;SDS011;1107;48.654;9.250;2022-09-14T06:25:43;1.50;;;0.60;;
2201;SDS011;1107;48.654;9.250;2022-09-14T06:28:12;1.30;;;0.70;;
2201;SDS011;1107;48.654;9.250;2022-09-14T06:30:41;1.30;;;0.60;;
2201;SDS011;1107;48.654;9.250;2022-09-14T06:33:09;1.30;;;0.60;;
2201;SDS011;1107;48.654;9.250;2022-09-14T06:35:36;2.07;;;0.53;;
2201;SDS011;1107;48.654;9.250;2022-09-14T06:38:03;1.40;;;0.70;;
2201;SDS011;1107;48.654;9.250;2022-09-14T06:40:30;1.30;;;0.60;;
2201;SDS011;1107;48.654;9.250;2022-09-14T06:42:57;1.30;;;0.70;;
2201;SDS011;1107;48.654;9.250;2022-09-14T06:45:28;1.30;;;0.50;;
2201;SDS011;1107;48.654;9.250;2022-09-14T06:47:55;1.30;;;0.57;;
2201;SDS011;1107;48.654;9.250;2022-09-14T06:50:22;1.30;;;0.50;;
2201;SDS011;1107;48.654;9.250;2022-09-14T06:52:49;1.30;;;0.50;;
2201;SDS011;1107;48.654;9.250;2022-09-14T06:55:16;1.30;;;0.50;;
2201;SDS011;1107;48.654;9.250;2022-09-14T06:57:46;1.30;;;0.50;;
2201;SDS011;1107;48.654;9.250;2022-09-14T07:00:13;1.30;;;0.50;;
2201;SDS011;1107;48.654;9.250;2022-09-14T07:02:43;1.30;;;0.70;;
2201;SDS011;1107;48.654;9.250;2022-09-14T07:05:11;1.30;;;0.50;;
2201;SDS011;1107;48.654;9.250;2022-09-14T07:07:39;1.27;;;0.53;;
2201;SDS011;1107;48.654;9.250;2022-09-14T07:10:07;1.30;;;0.50;;
2201;SDS011;1107;48.654;9.250;2022-09-14T07:12:35;1.30;;;0.63;;
2201;SDS011;1107;48.654;9.250;2022-09-14T07:15:02;1.30;;;0.50;;
2201;SDS011;1107;48.654;9.250;2022-09-14T07:17:31;1.27;;;0.50;;
2201;SDS011;1107;48.654;9.250;2022-09-14T07:20:02;1.30;;;0.80;;
2201;SDS011;1107;48.654;9.250;2022-09-14T07:22:31;1.50;;;0.77;;
2201;SDS011;1107;48.654;9.250;2022-09-14T07:24:58;1.30;;;0.50;;
2201;SDS011;1107;48.654;9.250;2022-09-14T07:27:25;1.37;;;0.60;;
2201;SDS011;1107;48.654;9.250;2022-09-14T07:29:52;1.30;;;0.70;;
2201;SDS011;1107;48.654;9.250;2022-09-14T07:32:19;1.23;;;0.50;;
2201;SDS011;1107;48.654;9.250;2022-09-14T07:34:46;1.30;;;0.50;;
2201;SDS011;1107;48.654;9.250;2022-09-14T07:37:15;1.40;;;0.77;;
2201;SDS011;1107;48.654;9.250;2022-09-14T07:39:42;1.30;;;0.50;;
2201;SDS011;1107;48.654;9.250;2022-09-14T07:42:08;1.30;;;0.70;;
2201;SDS011;1107;48.654;9.250;2022-09-14T07:44:35;1.30;;;0.60;;
2201;SDS011;1107;48.654;9.250;2022-09-14T07:47:02;1.30;;;0.60;;
2201;SDS011;1107;48.654;9.250;2022-09-14T07:49:29;1.30;;;0.60;;
2201;SDS011;1107;48.654;9.250;2022-09-14T07:51:56;1.40;;;0.80;;
2201;SDS011;1107;48.654;9.250;2022-09-14T07:54:25;1.30;;;0.60;;
2201;SDS011;1107;48.654;9.250;2022-09-14T07:56:52;1.30;;;0.60;;
2201;SDS011;1107;48.654;9.250;2022-09-14T07:59:19;1.40;;;0.77;;
2201;SDS011;1107;48.654;9.250;2022-09-14T08:01:47;1.30;;;0.60;;
2201;SDS011;1107;48.654;9.250;2022-09-14T08:04:14;1.33;;;0.73;;
2201;SDS011;1107;48.654;9.250;2022-09-14T08:06:41;1.33;;;0.70;;
2201;SDS011;1107;48.654;9.250;2022-09-14T08:09:08;1.50;;;1.00;;
2201;SDS011;1107;48.654;9.250;2022-09-14T08:11:36;1.40;;;0.80;;
2201;SDS011;1107;48.654;9.250;2022-09-14T08:14:04;1.33;;;0.70;;
2201;SDS011;1107;48.654;9.250;2022-09-14T08:16:33;1.30;;;0.80;;
2201;SDS011;1107;48.654;9.250;2022-09-14T08:19:03;1.40;;;0.70;;
2201;SDS011;1107;48.654;9.250;2022-09-14T08:21:31;1.30;;;0.60;;
2201;SDS011;1107;48.654;9.250;2022-09-14T08:23:59;1.40;;;0.80;;
2201;SDS011;1107;48.654;9.250;2022-09-14T08:26:28;1.27;;;0.47;;
2201;SDS011;1107;48.654;9.250;2022-09-14T08:28:57;1.30;;;0.60;;
2201;SDS011;1107;48.654;9.250;2022-09-14T08:31:25;1.30;;;0.50;;
2201;SDS011;1107;48.654;9.250;2022-09-14T08:33:54;1.40;;;0.60;;
2201;SDS011;1107;48.654;9.250;2022-09-14T08:36:23;1.40;;;0.70;;
2201;SDS011;1107;48.654;9.250;2022-09-14T08:38:51;1.30;;;0.50;;
2201;SDS011;1107;48.654;9.250;2022-09-14T08:41:23;1.40;;;0.60;;
2201;SDS011;1107;48.654;9.250;2022-09-14T08:43:59;1.40;;;0.60;;
2201;SDS011;1107;48.654;9.250;2022-09-14T08:46:32;1.30;;;0.53;;
2201;SDS011;1107;48.654;9.250;2022-09-14T08:49:01;1.37;;;0.60;;
2201;SDS011;1107;48.654;9.250;2022-09-14T08:51:32;1.30;;;0.50;;
2201;SDS011;1107;48.654;9.250;2022-09-14T08:53:59;1.30;;;0.53;;
2201;SDS011;1107;48.654;9.250;2022-09-14T08:56:28;1.43;;;0.70;;
2201;SDS011;1107;48.654;9.250;2022-09-14T09:02:02;1.40;;;0.73;;
2201;SDS011;1107;48.654;9.250;2022-09-14T09:04:46;1.30;;;0.80;;
2201;SDS011;1107;48.654;9.250;2022-09-14T09:07:20;1.30;;;0.70;;
2201;SDS011;1107;48.654;9.250;2022-09-14T09:09:55;1.30;;;0.80;;
2201;SDS011;1107;48.654;9.250;2022-09-14T09:12:26;1.30;;;0.70;;
2201;SDS011;1107;48.654;9.250;2022-09-14T09:15:02;1.40;;;1.00;;
2201;SDS011;1107;48.654;9.250;2022-09-14T09:17:33;1.40;;;0.93;;
2201;SDS011;1107;48.654;9.250;2022-09-14T09:20:06;1.30;;;0.70;;
2201;SDS011;1107;48.654;9.250;2022-09-14T09:22:40;1.40;;;0.77;;
2201;SDS011;1107;48.654;9.250;2022-09-14T09:25:13;1.40;;;0.90;;
2201;SDS011;1107;48.654;9.250;2022-09-14T09:27:47;1.40;;;0.80;;
2201;SDS011;1107;48.654;9.250;2022-09-14T09:30:15;1.40;;;0.97;;
2201;SDS011;1107;48.654;9.250;2022-09-14T09:32:43;1.40;;;0.80;;
2201;SDS011;1107;48.654;9.250;2022-09-14T09:35:12;1.30;;;0.80;;
2201;SDS011;1107;48.654;9.250;2022-09-14T09:37:41;1.40;;;0.77;;
2201;SDS011;1107;48.654;9.250;2022-09-14T09:40:15;1.40;;;0.50;;
2201;SDS011;1107;48.654;9.250;2022-09-14T09:43:02;1.50;;;0.60;;
2201;SDS011;1107;48.654;9.250;2022-09-14T09:48:17;1.30;;;0.50;;
2201;SDS011;1107;48.654;9.250;2022-09-14T09:50:46;1.40;;;0.77;;
2201;SDS011;1107;48.654;9.250;2022-09-14T09:53:16;1.30;;;0.60;;
2201;SDS011;1107;48.654;9.250;2022-09-14T09:55:47;1.30;;;0.60;;
2201;SDS011;1107;48.654;9.250;2022-09-14T09:58:19;1.40;;;0.80;;
2201;SDS011;1107;48.654;9.250;2022-09-14T10:00:54;1.30;;;0.70;;
2201;SDS011;1107;48.654;9.250;2022-09-14T10:03:27;1.37;;;0.73;;
2201;SDS011;1107;48.654;9.250;2022-09-14T10:05:59;1.50;;;0.70;;
2201;SDS011;1107;48.654;9.250;2022-09-14T10:08:29;1.40;;;0.60;;
2201;SDS011;1107;48.654;9.250;2022-09-14T10:10:59;1.40;;;0.80;;
2201;SDS011;1107;48.654;9.250;2022-09-14T10:13:29;1.30;;;0.50;;
2201;SDS011;1107;48.654;9.250;2022-09-14T10:16:06;1.43;;;0.70;;
2201;SDS011;1107;48.654;9.250;2022-09-14T10:18:40;1.30;;;0.60;;
2201;SDS011;1107;48.654;9.250;2022-09-14T10:21:09;1.30;;;0.50;;
2201;SDS011;1107;48.654;9.250;2022-09-14T10:23:36;1.30;;;0.60;;
2201;SDS011;1107;48.654;9.250;2022-09-14T10:26:17;1.30;;;0.50;;
2201;SDS011;1107;48.654;9.250;2022-09-14T10:28:48;1.40;;;0.60;;
2201;SDS011;1107;48.654;9.250;2022-09-14T10:31:20;1.47;;;0.60;;
2201;SDS011;1107;48.654;9.250;2022-09-14T10:33:53;1.40;;;0.70;;
2201;SDS011;1107;48.654;9.250;2022-09-14T10:36:22;1.40;;;0.50;;
2201;SDS011;1107;48.654;9.250;2022-09-14T10:38:51;1.30;;;0.60;;
2201;SDS011;1107;48.654;9.250;2022-09-14T10:41:23;1.40;;;0.63;;
2201;SDS011;1107;48.654;9.250;2022-09-14T10:43:59;1.40;;;0.70;;
2201;SDS011;1107;48.654;9.250;2022-09-14T10:46:54;1.30;;;0.50;;
2201;SDS011;1107;48.654;9.250;2022-09-14T10:49:36;1.37;;;0.50;;
2201;SDS011;1107;48.654;9.250;2022-09-14T10:52:13;1.30;;;0.50;;
2201;SDS011;1107;48.654;9.250;2022-09-14T10:54:51;1.30;;;0.60;;
2201;SDS011;1107;48.654;9.250;2022-09-14T10:57:51;1.30;;;0.50;;
2201;SDS011;1107;48.654;9.250;2022-09-14T11:00:23;1.30;;;0.50;;
2201;SDS011;1107;48.654;9.250;2022-09-14T11:02:56;1.27;;;0.47;;
2201;SDS011;1107;48.654;9.250;2022-09-14T11:05:38;1.30;;;0.50;;
2201;SDS011;1107;48.654;9.250;2022-09-14T11:08:12;1.30;;;0.57;;
2201;SDS011;1107;48.654;9.250;2022-09-14T11:10:51;1.40;;;0.70;;
2201;SDS011;1107;48.654;9.250;2022-09-14T11:13:35;1.30;;;0.50;;
2201;SDS011;1107;48.654;9.250;2022-09-14T11:16:19;1.30;;;0.60;;
2201;SDS011;1107;48.654;9.250;2022-09-14T11:19:05;1.40;;;0.70;;
2201;SDS011;1107;48.654;9.250;2022-09-14T11:21:42;1.20;;;0.50;;
2201;SDS011;1107;48.654;9.250;2022-09-14T11:24:16;2.77;;;0.70;;
2201;SDS011;1107;48.654;9.250;2022-09-14T11:26:54;1.30;;;0.60;;
2201;SDS011;1107;48.654;9.250;2022-09-14T11:29:29;1.40;;;0.60;;
2201;SDS011;1107;48.654;9.250;2022-09-14T11:32:02;1.33;;;0.70;;
2201;SDS011;1107;48.654;9.250;2022-09-14T11:34:34;1.30;;;0.47;;
2201;SDS011;1107;48.654;9.250;2022-09-14T11:37:04;1.37;;;0.70;;
2201;SDS011;1107;48.654;9.250;2022-09-14T11:39:36;1.30;;;0.50;;
2201;SDS011;1107;48.654;9.250;2022-09-14T11:42:08;1.60;;;0.70;;
2201;SDS011;1107;48.654;9.250;2022-09-14T11:44:39;1.40;;;0.60;;
2201;SDS011;1107;48.654;9.250;2022-09-14T11:47:10;1.33;;;0.50;;
2201;SDS011;1107;48.654;9.250;2022-09-14T11:49:48;1.30;;;0.50;;
2201;SDS011;1107;48.654;9.250;2022-09-14T11:52:22;1.30;;;0.50;;
2201;SDS011;1107;48.654;9.250;2022-09-14T11:54:50;1.40;;;0.70;;
2201;SDS011;1107;48.654;9.250;2022-09-14T11:57:19;1.33;;;0.63;;
2201;SDS011;1107;48.654;9.250;2022-09-14T11:59:50;1.30;;;0.50;;
2201;SDS011;1107;48.654;9.250;2022-09-14T12:05:37;1.30;;;0.60;;
2201;SDS011;1107;48.654;9.250;2022-09-14T12:08:25;1.30;;;0.50;;
2201;SDS011;1107;48.654;9.250;2022-09-14T12:11:02;1.30;;;0.50;;
2201;SDS011;1107;48.654;9.250;2022-09-14T12:13:48;1.30;;;0.47;;
2201;SDS011;1107;48.654;9.250;2022-09-14T12:19:34;1.30;;;0.50;;
2201;SDS011;1107;48.654;9.250;2022-09-14T12:24:59;1.40;;;0.70;;
2201;SDS011;1107;48.654;9.250;2022-09-14T12:27:28;1.40;;;0.67;;
2201;SDS011;1107;48.654;9.250;2022-09-14T12:29:56;1.30;;;0.60;;
2201;SDS011;1107;48.654;9.250;2022-09-14T12:32:25;1.30;;;0.60;;
2201;SDS011;1107;48.654;9.250;2022-09-14T12:44:31;1.63;;;0.57;;
2201;SDS011;1107;48.654;9.250;2022-09-14T12:50:03;1.27;;;0.40;;
2201;SDS011;1107;48.654;9.250;2022-09-14T12:52:36;1.30;;;0.40;;
2201;SDS011;1107;48.654;9.250;2022-09-14T12:55:15;1.30;;;0.50;;
2201;SDS011;1107;48.654;9.250;2022-09-14T12:58:06;1.30;;;0.60;;
2201;SDS011;1107;48.654;9.250;2022-09-14T13:00:48;1.30;;;0.53;;
2201;SDS011;1107;48.654;9.250;2022-09-14T13:06:13;1.30;;;0.50;;
2201;SDS011;1107;48.654;9.250;2022-09-14T13:08:45;1.20;;;0.47;;
2201;SDS011;1107;48.654;9.250;2022-09-14T13:11:20;1.30;;;0.50;;
2201;SDS011;1107;48.654;9.250;2022-09-14T13:13:50;1.30;;;0.50;;
2201;SDS011;1107;48.654;9.250;2022-09-14T13:16:21;1.30;;;0.60;;
2201;SDS011;1107;48.654;9.250;2022-09-14T13:18:58;1.50;;;0.80;;
2201;SDS011;1107;48.654;9.250;2022-09-14T13:21:27;1.30;;;0.50;;
2201;SDS011;1107;48.654;9.250;2022-09-14T13:23:54;1.27;;;0.50;;
2201;SDS011;1107;48.654;9.250;2022-09-14T13:26:22;1.30;;;0.57;;
2201;SDS011;1107;48.654;9.250;2022-09-14T13:28:51;1.30;;;0.50;;
2201;SDS011;1107;48.654;9.250;2022-09-14T13:31:22;1.40;;;0.60;;
2201;SDS011;1107;48.654;9.250;2022-09-14T13:33:53;1.27;;;0.50;;
2201;SDS011;1107;48.654;9.250;2022-09-14T13:36:22;1.27;;;0.40;;
2201;SDS011;1107;48.654;9.250;2022-09-14T13:38:51;1.30;;;0.50;;
2201;SDS011;1107;48.654;9.250;2022-09-14T13:41:19;1.27;;;0.40;;
2201;SDS011;1107;48.654;9.250;2022-09-14T13:43:48;1.30;;;0.50;;
2201;SDS011;1107;48.654;9.250;2022-09-14T13:46:18;1.30;;;0.50;;
2201;SDS011;1107;48.654;9.250;2022-09-14T13:48:48;1.30;;;0.50;;
2201;SDS011;1107;48.654;9.250;2022-09-14T13:51:16;1.30;;;0.40;;
2201;SDS011;1107;48.654;9.250;2022-09-14T13:53:49;1.30;;;0.50;;
2201;SDS011;1107;48.654;9.250;2022-09-14T13:56:25;1.30;;;0.40;;
2201;SDS011;1107;48.654;9.250;2022-09-14T13:59:17;1.30;;;0.50;;
2201;SDS011;1107;48.654;9.250;2022-09-14T14:01:53;1.30;;;0.40;;
2201;SDS011;1107;48.654;9.250;2022-09-14T14:04:26;1.30;;;0.50;;
2201;SDS011;1107;48.654;9.250;2022-09-14T14:06:58;1.30;;;0.57;;
2201;SDS011;1107;48.654;9.250;2022-09-14T14:09:36;1.30;;;0.60;;
2201;SDS011;1107;48.654;9.250;2022-09-14T14:12:06;1.30;;;0.50;;
2201;SDS011;1107;48.654;9.250;2022-09-14T14:14:35;1.23;;;0.40;;
2201;SDS011;1107;48.654;9.250;2022-09-14T14:19:58;1.30;;;0.47;;
2201;SDS011;1107;48.654;9.250;2022-09-14T14:22:53;1.30;;;0.50;;
2201;SDS011;1107;48.654;9.250;2022-09-14T14:25:23;1.30;;;0.50;;
2201;SDS011;1107;48.654;9.250;2022-09-14T14:27:59;1.27;;;0.47;;
2201;SDS011;1107;48.654;9.250;2022-09-14T14:30:28;1.30;;;0.60;;
2201;SDS011;1107;48.654;9.250;2022-09-14T14:32:56;1.30;;;0.50;;
2201;SDS011;1107;48.654;9.250;2022-09-14T14:35:26;1.40;;;0.50;;
2201;SDS011;1107;48.654;9.250;2022-09-14T14:37:54;1.30;;;0.40;;
2201;SDS011;1107;48.654;9.250;2022-09-14T14:40:22;1.30;;;0.50;;
2201;SDS011;1107;48.654;9.250;2022-09-14T14:42:51;1.23;;;0.40;;
2201;SDS011;1107;48.654;9.250;2022-09-14T14:45:20;1.30;;;0.57;;
2201;SDS011;1107;48.654;9.250;2022-09-14T14:47:50;1.30;;;0.40;;
2201;SDS011;1107;48.654;9.250;2022-09-14T14:50:19;1.30;;;0.50;;
2201;SDS011;1107;48.654;9.250;2022-09-14T14:52:49;1.40;;;0.60;;
2201;SDS011;1107;48.654;9.250;2022-09-14T14:55:17;1.30;;;0.50;;
2201;SDS011;1107;48.654;9.250;2022-09-14T14:57:45;1.30;;;0.50;;
2201;SDS011;1107;48.654;9.250;2022-09-14T15:00:14;1.30;;;0.50;;
2201;SDS011;1107;48.654;9.250;2022-09-14T15:02:43;1.30;;;0.40;;
2201;SDS011;1107;48.654;9.250;2022-09-14T15:05:10;1.30;;;0.50;;
2201;SDS011;1107;48.654;9.250;2022-09-14T15:07:38;1.30;;;0.50;;
2201;SDS011;1107;48.654;9.250;2022-09-14T15:10:07;1.30;;;0.50;;
2201;SDS011;1107;48.654;9.250;2022-09-14T15:12:37;1.30;;;0.40;;
2201;SDS011;1107;48.654;9.250;2022-09-14T15:15:05;1.30;;;0.50;;
2201;SDS011;1107;48.654;9.250;2022-09-14T15:17:36;1.30;;;0.50;;
2201;SDS011;1107;48.654;9.250;2022-09-14T15:20:03;1.30;;;0.40;;
2201;SDS011;1107;48.654;9.250;2022-09-14T15:22:31;1.30;;;0.40;;
2201;SDS011;1107;48.654;9.250;2022-09-14T15:24:59;1.30;;;0.50;;
2201;SDS011;1107;48.654;9.250;2022-09-14T15:27:27;1.27;;;0.40;;
2201;SDS011;1107;48.654;9.250;2022-09-14T15:29:54;1.40;;;0.60;;
2201;SDS011;1107;48.654;9.250;2022-09-14T15:32:21;1.20;;;0.40;;
2201;SDS011;1107;48.654;9.250;2022-09-14T15:34:48;1.30;;;0.50;;
2201;SDS011;1107;48.654;9.250;2022-09-14T15:37:17;1.30;;;0.50;;
2201;SDS011;1107;48.654;9.250;2022-09-14T15:39:44;1.40;;;0.60;;
2201;SDS011;1107;48.654;9.250;2022-09-14T15:42:11;1.30;;;0.50;;
2201;SDS011;1107;48.654;9.250;2022-09-14T15:44:40;1.30;;;0.50;;
2201;SDS011;1107;48.654;9.250;2022-09-14T15:47:07;1.30;;;0.40;;
2201;SDS011;1107;48.654;9.250;2022-09-14T15:49:34;1.40;;;0.50;;
2201;SDS011;1107;48.654;9.250;2022-09-14T15:52:01;1.30;;;0.50;;
2201;SDS011;1107;48.654;9.250;2022-09-14T15:54:29;1.30;;;0.43;;
2201;SDS011;1107;48.654;9.250;2022-09-14T15:56:57;1.30;;;0.50;;
2201;SDS011;1107;48.654;9.250;2022-09-14T15:59:25;1.30;;;0.40;;
2201;SDS011;1107;48.654;9.250;2022-09-14T16:01:54;1.27;;;0.50;;
2201;SDS011;1107;48.654;9.250;2022-09-14T16:04:21;1.27;;;0.40;;
2201;SDS011;1107;48.654;9.250;2022-09-14T16:06:48;1.30;;;0.40;;
2201;SDS011;1107;48.654;9.250;2022-09-14T16:09:15;1.30;;;0.40;;